createdAt,value
2019-03-19T00:01:57.945Z,101991.36
2019-03-19T00:04:27.001Z,102001.77
2019-03-19T00:06:56.031Z,102003.56
2019-03-19T00:09:25.177Z,102013.37
2019-03-19T00:11:54.119Z,102012.23
2019-03-19T00:14:23.499Z,102010.28
2019-03-19T00:16:52.440Z,102008.40
2019-03-19T00:19:22.519Z,102006.42
2019-03-19T00:21:50.514Z,102010.80
2019-03-19T00:24:19.522Z,102013.92
2019-03-19T00:26:48.400Z,102010.02
2019-03-19T00:29:17.552Z,102006.94
2019-03-19T00:31:46.502Z,102004.27
2019-03-19T00:34:15.600Z,102002.30
2019-03-19T00:36:44.636Z,102005.88
2019-03-19T00:39:13.597Z,102016.73
2019-03-19T00:41:42.577Z,102019.73
2019-03-19T00:44:12.406Z,102022.63
2019-03-19T00:46:42.179Z,102021.98
2019-03-19T00:49:11.129Z,102027.43
2019-03-19T00:51:40.109Z,102028.94
2019-03-19T00:54:09.170Z,102034.14
2019-03-19T00:56:38.284Z,102037.41
2019-03-19T00:59:07.359Z,102040.64
2019-03-19T01:01:38.852Z,102039.20
2019-03-19T01:04:06.522Z,102038.45
2019-03-19T01:06:35.924Z,102033.57
2019-03-19T01:09:06.224Z,102037.56
2019-03-19T01:11:35.274Z,102038.84
2019-03-19T01:14:04.312Z,102041.78
2019-03-19T01:16:34.820Z,102047.70
2019-03-19T01:19:03.831Z,102062.97
2019-03-19T01:21:32.837Z,102069.02
2019-03-19T01:24:01.962Z,102074.35
2019-03-19T01:26:30.912Z,102070.02
2019-03-19T01:28:59.870Z,102060.75
2019-03-19T01:31:28.903Z,102054.47
2019-03-19T01:33:57.935Z,102059.92
2019-03-19T01:36:26.977Z,102070.14
2019-03-19T01:38:56.038Z,102072.39
2019-03-19T01:41:25.117Z,102060.78
2019-03-19T01:43:54.088Z,102065.34
2019-03-19T01:46:23.082Z,102068.18
2019-03-19T01:48:54.969Z,102064.68
2019-03-19T01:51:24.110Z,102064.22
2019-03-19T01:53:53.145Z,102063.47
2019-03-19T01:56:22.142Z,102060.17
2019-03-19T01:58:51.172Z,102059.76
2019-03-19T02:01:20.227Z,102065.89
2019-03-19T02:03:49.696Z,102070.02
2019-03-19T02:06:18.601Z,102075.31
2019-03-19T02:08:47.640Z,102081.27
2019-03-19T02:11:17.076Z,102080.59
2019-03-19T02:13:46.052Z,102083.48
2019-03-19T02:16:15.172Z,102089.32
2019-03-19T02:18:44.220Z,102083.77
2019-03-19T02:21:13.212Z,102087.47
2019-03-19T02:23:42.296Z,102081.48
2019-03-19T02:26:16.426Z,102084.60
2019-03-19T02:28:40.321Z,102072.44
2019-03-19T02:31:12.446Z,102081.52
2019-03-19T02:33:41.409Z,102079.11
2019-03-19T02:36:10.498Z,102079.50
2019-03-19T02:38:40.853Z,102084.47
2019-03-19T02:41:10.168Z,102081.88
2019-03-19T02:43:40.887Z,102081.85
2019-03-19T02:46:10.089Z,102092.83
2019-03-19T02:48:39.576Z,102086.16
2019-03-19T02:51:09.098Z,102091.50
2019-03-19T02:53:38.157Z,102087.23
2019-03-19T02:56:07.348Z,102093.90
2019-03-19T02:58:37.252Z,102096.71
2019-03-19T03:01:06.393Z,102106.50
2019-03-19T03:03:35.799Z,102106.66
2019-03-19T03:06:05.674Z,102110.91
2019-03-19T03:08:36.035Z,102105.20
2019-03-19T03:11:05.864Z,102111.68
2019-03-19T03:13:34.973Z,102112.14
2019-03-19T03:16:04.155Z,102119.02
2019-03-19T03:18:33.948Z,102115.63
2019-03-19T03:21:05.158Z,102112.55
2019-03-19T03:23:38.487Z,102108.44
2019-03-19T03:26:07.977Z,102106.30
2019-03-19T03:28:51.921Z,102103.29
2019-03-19T03:31:21.094Z,102102.53
2019-03-19T03:33:50.219Z,102114.08
2019-03-19T03:36:22.150Z,102115.83
2019-03-19T03:38:52.001Z,102123.24
2019-03-19T03:41:21.111Z,102118.41
2019-03-19T03:43:50.205Z,102124.30
2019-03-19T03:46:20.043Z,102122.44
2019-03-19T03:48:49.741Z,102126.33
2019-03-19T03:51:19.780Z,102129.72
2019-03-19T03:53:48.833Z,102127.73
2019-03-19T03:56:17.924Z,102129.70
2019-03-19T03:59:00.066Z,102132.36
2019-03-19T04:01:16.268Z,102127.56
2019-03-19T04:03:45.437Z,102134.26
2019-03-19T04:06:14.805Z,102136.05
2019-03-19T04:08:43.819Z,102132.89
2019-03-19T04:11:13.584Z,102133.34
2019-03-19T04:13:42.719Z,102134.72
2019-03-19T04:16:11.842Z,102133.03
2019-03-19T04:18:40.960Z,102142.92
2019-03-19T04:21:10.041Z,102140.67
2019-03-19T04:23:39.325Z,102142.98
2019-03-19T04:26:08.920Z,102147.97
2019-03-19T04:28:38.079Z,102156.90
2019-03-19T04:31:10.617Z,102154.23
2019-03-19T04:33:39.720Z,102165.52
2019-03-19T04:36:08.985Z,102154.02
2019-03-19T04:38:40.051Z,102161.69
2019-03-19T04:41:09.261Z,102159.54
2019-03-19T04:43:38.528Z,102161.87
2019-03-19T04:46:10.470Z,102170.91
2019-03-19T04:48:39.587Z,102176.86
2019-03-19T04:51:08.663Z,102173.84
2019-03-19T04:53:41.653Z,102172.41
2019-03-19T04:56:15.667Z,102169.09
2019-03-19T04:58:46.951Z,102174.55
2019-03-19T05:01:24.210Z,102184.42
2019-03-19T05:04:05.214Z,102186.28
2019-03-19T05:06:34.608Z,102186.44
2019-03-19T05:09:09.122Z,102185.46
2019-03-19T05:11:38.331Z,102179.52
2019-03-19T05:14:08.361Z,102177.01
2019-03-19T05:16:37.595Z,102180.81
2019-03-19T05:19:06.894Z,102188.38
2019-03-19T05:21:36.023Z,102186.80
2019-03-19T05:24:05.084Z,102189.39
2019-03-19T05:26:34.566Z,102193.19
2019-03-19T05:29:05.683Z,102195.03
2019-03-19T05:31:37.645Z,102200.33
2019-03-19T05:34:06.959Z,102202.08
2019-03-19T05:36:36.110Z,102212.31
2019-03-19T05:39:09.082Z,102221.17
2019-03-19T05:41:38.229Z,102226.47
2019-03-19T05:44:09.271Z,102221.66
2019-03-19T05:46:38.418Z,102214.33
2019-03-19T05:49:07.680Z,102213.78
2019-03-19T05:51:36.890Z,102218.59
2019-03-19T05:54:06.265Z,102222.01
2019-03-19T05:56:36.054Z,102223.23
2019-03-19T05:59:05.268Z,102221.03
2019-03-19T06:01:35.267Z,102227.92
2019-03-19T06:04:05.474Z,102226.56
2019-03-19T06:06:34.930Z,102225.87
2019-03-19T06:09:24.545Z,102225.03
2019-03-19T06:11:53.755Z,102226.36
2019-03-19T06:14:23.387Z,102221.70
2019-03-19T06:16:52.567Z,102225.25
2019-03-19T06:19:22.001Z,102232.91
2019-03-19T06:21:51.150Z,102231.37
2019-03-19T06:24:20.265Z,102230.88
2019-03-19T06:26:49.385Z,102231.21
2019-03-19T06:29:18.462Z,102239.56
2019-03-19T06:31:47.656Z,102246.47
2019-03-19T06:34:17.711Z,102248.53
2019-03-19T06:36:46.877Z,102242.33
2019-03-19T06:39:16.702Z,102241.58
2019-03-19T06:41:45.721Z,102240.45
2019-03-19T06:44:14.864Z,102249.20
2019-03-19T06:46:45.223Z,102249.84
2019-03-19T06:49:14.379Z,102257.86
2019-03-19T06:51:43.404Z,102255.55
2019-03-19T06:54:13.333Z,102263.83
2019-03-19T06:56:43.344Z,102261.57
2019-03-19T06:59:12.577Z,102266.08
2019-03-19T07:01:41.724Z,102264.11
2019-03-19T07:04:11.028Z,102267.89
2019-03-19T07:06:40.531Z,102266.51
2019-03-19T07:09:10.251Z,102262.94
2019-03-19T07:11:39.450Z,102267.49
2019-03-19T07:14:10.498Z,102274.36
2019-03-19T07:16:40.177Z,102271.94
2019-03-19T07:19:10.667Z,102274.96
2019-03-19T07:21:42.499Z,102263.78
2019-03-19T07:24:15.512Z,102271.31
2019-03-19T07:27:04.925Z,102266.34
2019-03-19T07:29:49.688Z,102263.46
2019-03-19T07:32:21.519Z,102266.92
2019-03-19T07:34:50.752Z,102265.34
2019-03-19T07:37:20.003Z,102267.23
2019-03-19T07:39:49.186Z,102273.37
2019-03-19T07:42:18.720Z,102274.37
2019-03-19T07:44:50.214Z,102272.17
2019-03-19T07:47:21.442Z,102266.70
2019-03-19T07:49:53.516Z,102268.02
2019-03-19T07:52:25.405Z,102269.64
2019-03-19T07:54:57.919Z,102280.76
2019-03-19T07:57:29.576Z,102282.48
2019-03-19T07:59:58.248Z,102283.48
2019-03-19T08:02:29.639Z,102287.36
2019-03-19T08:04:59.339Z,102293.97
2019-03-19T08:07:28.386Z,102293.73
2019-03-19T08:09:57.511Z,102290.62
2019-03-19T08:12:26.945Z,102291.95
2019-03-19T08:14:55.979Z,102296.91
2019-03-19T08:17:26.100Z,102301.53
2019-03-19T08:19:57.319Z,102302.05
2019-03-19T08:22:27.325Z,102297.73
2019-03-19T08:24:58.565Z,102300.20
2019-03-19T08:27:29.545Z,102304.14
2019-03-19T08:29:58.728Z,102310.36
2019-03-19T08:32:35.257Z,102309.44
2019-03-19T08:35:04.798Z,102322.66
2019-03-19T08:37:33.932Z,102315.09
2019-03-19T08:40:03.206Z,102316.46
2019-03-19T08:42:32.309Z,102321.52
2019-03-19T08:45:01.500Z,102325.84
2019-03-19T08:47:30.690Z,102328.09
2019-03-19T08:49:59.898Z,102329.54
2019-03-19T08:52:29.184Z,102332.91
2019-03-19T08:55:01.023Z,102325.23
2019-03-19T08:57:30.045Z,102330.66
2019-03-19T08:59:59.176Z,102336.53
2019-03-19T09:02:28.316Z,102340.25
2019-03-19T09:04:57.410Z,102343.50
2019-03-19T09:07:26.544Z,102337.70
2019-03-19T09:09:55.715Z,102333.17
2019-03-19T09:12:27.478Z,102338.06
2019-03-19T09:14:56.572Z,102336.05
2019-03-19T09:17:25.686Z,102330.16
2019-03-19T09:19:54.646Z,102339.15
2019-03-19T09:22:29.635Z,102331.97
2019-03-19T09:24:53.701Z,102332.13
2019-03-19T09:27:23.372Z,102331.70
2019-03-19T09:29:53.922Z,102333.80
2019-03-19T09:32:25.792Z,102334.78
2019-03-19T09:34:54.791Z,102339.33
2019-03-19T09:37:44.601Z,102347.12
2019-03-19T09:40:09.642Z,102342.78
2019-03-19T09:42:38.868Z,102344.92
2019-03-19T09:45:08.493Z,102335.32
2019-03-19T09:47:38.578Z,102341.02
2019-03-19T09:50:07.511Z,102333.60
2019-03-19T09:52:36.602Z,102338.23
2019-03-19T09:55:06.609Z,102338.98
2019-03-19T09:57:35.796Z,102341.16
2019-03-19T10:00:06.411Z,102333.94
2019-03-19T10:02:35.693Z,102335.97
2019-03-19T10:05:05.119Z,102337.38
2019-03-19T10:07:34.262Z,102327.77
2019-03-19T10:10:03.546Z,102334.62
2019-03-19T10:12:32.742Z,102335.41
2019-03-19T10:15:02.754Z,102330.84
2019-03-19T10:17:31.975Z,102328.13
2019-03-19T10:20:01.035Z,102332.05
2019-03-19T10:22:30.269Z,102331.52
2019-03-19T10:24:59.478Z,102336.39
2019-03-19T10:27:28.777Z,102345.76
2019-03-19T10:29:58.285Z,102352.41
2019-03-19T10:32:27.537Z,102345.63
2019-03-19T10:34:56.910Z,102346.23
2019-03-19T10:37:26.138Z,102342.05
2019-03-19T10:39:55.166Z,102337.55
2019-03-19T10:42:24.524Z,102332.11
2019-03-19T10:44:53.587Z,102333.52
2019-03-19T10:47:22.801Z,102337.89
2019-03-19T10:49:51.974Z,102330.03
2019-03-19T10:52:21.022Z,102322.78
2019-03-19T10:54:50.092Z,102326.70
2019-03-19T10:57:19.214Z,102326.30
2019-03-19T10:59:49.995Z,102326.10
2019-03-19T11:02:19.016Z,102324.84
2019-03-19T11:04:48.136Z,102327.76
2019-03-19T11:07:17.153Z,102322.52
2019-03-19T11:09:46.338Z,102331.56
2019-03-19T11:12:15.386Z,102331.98
2019-03-19T11:14:44.397Z,102323.67
2019-03-19T11:17:13.505Z,102329.25
2019-03-19T11:19:42.600Z,102340.70
2019-03-19T11:22:11.529Z,102333.41
2019-03-19T11:24:40.571Z,102331.02
2019-03-19T11:27:09.770Z,102335.51
2019-03-19T11:29:38.906Z,102330.19
2019-03-19T11:32:08.173Z,102328.16
2019-03-19T11:34:37.249Z,102331.37
2019-03-19T11:37:06.508Z,102322.37
2019-03-19T11:39:35.551Z,102321.70
2019-03-19T11:42:04.799Z,102335.11
2019-03-19T11:44:33.869Z,102341.25
2019-03-19T11:47:03.133Z,102344.75
2019-03-19T11:49:32.334Z,102340.64
2019-03-19T11:52:01.751Z,102346.33
2019-03-19T11:54:30.864Z,102343.75
2019-03-19T11:57:00.101Z,102342.30
2019-03-19T11:59:29.164Z,102338.69
2019-03-19T12:01:58.385Z,102342.30
2019-03-19T12:04:27.468Z,102341.92
2019-03-19T12:06:56.726Z,102348.05
2019-03-19T12:09:25.965Z,102342.80
2019-03-19T12:11:55.266Z,102348.00
2019-03-19T12:14:24.523Z,102346.03
2019-03-19T12:16:53.663Z,102356.47
2019-03-19T12:19:22.856Z,102359.17
2019-03-19T12:21:52.117Z,102357.62
2019-03-19T12:24:21.363Z,102356.45
2019-03-19T12:26:50.558Z,102365.80
2019-03-19T12:29:19.851Z,102360.83
2019-03-19T12:31:48.945Z,102365.66
2019-03-19T12:34:18.226Z,102351.09
2019-03-19T12:36:47.445Z,102367.34
2019-03-19T12:39:16.585Z,102361.44
2019-03-19T12:41:45.772Z,102360.80
2019-03-19T12:44:15.022Z,102355.33
2019-03-19T12:46:44.305Z,102351.95
2019-03-19T12:49:13.436Z,102349.22
2019-03-19T12:51:42.719Z,102349.53
2019-03-19T12:54:11.875Z,102347.37
2019-03-19T12:56:41.028Z,102343.84
2019-03-19T12:59:19.719Z,102346.51
2019-03-19T13:01:39.277Z,102348.88
2019-03-19T13:04:08.699Z,102350.97
2019-03-19T13:06:37.840Z,102340.16
2019-03-19T13:09:08.049Z,102347.46
2019-03-19T13:11:37.428Z,102354.33
2019-03-19T13:14:06.543Z,102349.66
2019-03-19T13:16:45.104Z,102345.69
2019-03-19T13:19:14.259Z,102345.89
2019-03-19T13:21:43.473Z,102342.42
2019-03-19T13:24:12.582Z,102342.55
2019-03-19T13:26:41.873Z,102344.26
2019-03-19T13:29:14.112Z,102338.98
2019-03-19T13:31:43.391Z,102336.97
2019-03-19T13:34:12.526Z,102328.59
2019-03-19T13:36:41.687Z,102340.34
2019-03-19T13:39:10.903Z,102340.48
2019-03-19T13:41:40.813Z,102340.97
2019-03-19T13:44:11.323Z,102337.86
2019-03-19T13:46:39.195Z,102337.73
2019-03-19T13:49:08.455Z,102332.94
2019-03-19T13:51:37.436Z,102344.27
2019-03-19T13:54:06.513Z,102334.42
2019-03-19T13:56:35.512Z,102331.84
2019-03-19T13:59:06.725Z,102336.56
2019-03-19T14:01:36.039Z,102335.14
2019-03-19T14:04:05.384Z,102332.78
2019-03-19T14:06:34.578Z,102336.31
2019-03-19T14:09:04.396Z,102333.56
2019-03-19T14:11:33.579Z,102332.72
2019-03-19T14:14:02.749Z,102329.90
2019-03-19T14:16:32.044Z,102335.51
2019-03-19T14:19:01.198Z,102327.23
2019-03-19T14:21:30.432Z,102332.55
2019-03-19T14:23:59.626Z,102328.95
2019-03-19T14:26:28.840Z,102332.04
2019-03-19T14:28:58.008Z,102332.55
2019-03-19T14:31:27.224Z,102337.76
2019-03-19T14:33:56.404Z,102335.88
2019-03-19T14:36:25.545Z,102326.34
2019-03-19T14:38:54.913Z,102322.15
2019-03-19T14:41:24.118Z,102321.98
2019-03-19T14:43:53.350Z,102324.76
2019-03-19T14:46:22.443Z,102326.03
2019-03-19T14:48:51.699Z,102327.94
2019-03-19T14:51:20.812Z,102337.36
2019-03-19T14:53:50.004Z,102337.57
2019-03-19T14:56:19.232Z,102338.07
2019-03-19T14:58:48.486Z,102333.27
2019-03-19T15:01:19.701Z,102332.11
2019-03-19T15:03:46.929Z,102329.71
2019-03-19T15:06:16.018Z,102331.61
2019-03-19T15:08:45.365Z,102329.96
2019-03-19T15:11:14.409Z,102334.14
2019-03-19T15:13:43.618Z,102333.22
2019-03-19T15:16:12.788Z,102332.38
2019-03-19T15:18:42.056Z,102326.24
2019-03-19T15:21:11.317Z,102334.02
2019-03-19T15:23:43.227Z,102329.64
2019-03-19T15:26:12.400Z,102332.90
2019-03-19T15:28:41.600Z,102335.44
2019-03-19T15:31:10.890Z,102341.47
2019-03-19T15:33:39.972Z,102336.27
2019-03-19T15:36:09.209Z,102334.38
2019-03-19T15:38:38.312Z,102335.17
2019-03-19T15:41:07.957Z,102336.91
2019-03-19T15:43:37.202Z,102334.76
2019-03-19T15:46:06.461Z,102330.11
2019-03-19T15:48:35.698Z,102329.98
2019-03-19T15:51:04.894Z,102334.70
2019-03-19T15:53:34.092Z,102334.30
2019-03-19T15:56:03.392Z,102343.70
2019-03-19T15:58:32.704Z,102339.70
2019-03-19T16:01:01.899Z,102353.11
2019-03-19T16:03:31.129Z,102349.27
2019-03-19T16:06:00.252Z,102348.89
2019-03-19T16:08:29.336Z,102350.52
2019-03-19T16:10:58.342Z,102356.06
2019-03-19T16:13:27.337Z,102359.13
2019-03-19T16:15:56.417Z,102356.73
2019-03-19T16:18:25.465Z,102362.40
2019-03-19T16:20:54.419Z,102365.61
2019-03-19T16:23:23.428Z,102367.56
2019-03-19T16:25:52.392Z,102368.34
2019-03-19T16:28:21.432Z,102365.87
2019-03-19T16:30:50.350Z,102365.46
2019-03-19T16:33:19.373Z,102373.95
2019-03-19T16:35:49.624Z,102369.16
2019-03-19T16:38:19.541Z,102372.82
2019-03-19T16:40:48.610Z,102376.02
2019-03-19T16:43:17.673Z,102374.22
2019-03-19T16:45:48.376Z,102381.47
2019-03-19T16:48:17.315Z,102379.06
2019-03-19T16:50:46.421Z,102386.33
2019-03-19T16:53:16.736Z,102386.66
2019-03-19T16:55:45.737Z,102387.80
2019-03-19T16:58:17.107Z,102393.82
2019-03-19T17:00:47.867Z,102396.75
2019-03-19T17:03:16.832Z,102397.24
2019-03-19T17:05:45.942Z,102396.95
2019-03-19T17:08:14.859Z,102403.84
2019-03-19T17:10:43.825Z,102400.64
2019-03-19T17:13:12.833Z,102400.86
2019-03-19T17:15:42.701Z,102402.19
2019-03-19T17:18:11.728Z,102400.96
2019-03-19T17:20:40.721Z,102406.20
2019-03-19T17:23:10.020Z,102408.20
2019-03-19T17:25:38.911Z,102411.62
2019-03-19T17:28:08.225Z,102413.16
2019-03-19T17:30:37.384Z,102408.89
2019-03-19T17:33:06.400Z,102415.66
2019-03-19T17:35:35.371Z,102411.75
2019-03-19T17:38:04.443Z,102419.29
2019-03-19T17:40:41.350Z,102419.73
2019-03-19T17:43:02.533Z,102422.58
2019-03-19T17:45:33.074Z,102426.82
2019-03-19T17:48:02.014Z,102427.98
2019-03-19T17:50:31.070Z,102424.62
2019-03-19T17:53:00.029Z,102430.09
2019-03-19T17:55:29.019Z,102434.47
2019-03-19T17:57:57.946Z,102441.88
2019-03-19T18:00:30.548Z,102441.30
2019-03-19T18:02:57.035Z,102439.01
2019-03-19T18:05:25.968Z,102444.25
2019-03-19T18:07:54.917Z,102445.89
2019-03-19T18:10:23.900Z,102448.45
2019-03-19T18:12:52.827Z,102444.02
2019-03-19T18:15:21.767Z,102444.56
2019-03-19T18:17:50.703Z,102445.52
2019-03-19T18:20:20.046Z,102447.88
2019-03-19T18:22:49.148Z,102457.96
2019-03-19T18:25:19.051Z,102457.76
2019-03-19T18:27:48.083Z,102454.17
2019-03-19T18:30:17.053Z,102459.70
2019-03-19T18:32:47.135Z,102460.06
2019-03-19T18:35:15.895Z,102465.36
2019-03-19T18:37:44.959Z,102467.47
2019-03-19T18:40:14.031Z,102467.81
2019-03-19T18:42:42.951Z,102468.73
2019-03-19T18:45:11.904Z,102471.78
2019-03-19T18:47:40.848Z,102474.18
2019-03-19T18:50:11.440Z,102478.45
2019-03-19T18:52:40.446Z,102479.50
2019-03-19T18:55:09.480Z,102478.88
2019-03-19T18:57:38.431Z,102480.92
2019-03-19T19:00:09.256Z,102493.81
2019-03-19T19:02:49.073Z,102505.91
2019-03-19T19:05:08.204Z,102504.78
2019-03-19T19:07:37.361Z,102513.91
2019-03-19T19:10:06.575Z,102512.30
2019-03-19T19:12:35.550Z,102515.99
2019-03-19T19:15:05.700Z,102521.73
2019-03-19T19:17:34.717Z,102528.49
2019-03-19T19:20:03.749Z,102522.85
2019-03-19T19:22:32.613Z,102525.48
2019-03-19T19:25:01.528Z,102520.67
2019-03-19T19:27:33.467Z,102530.21
2019-03-19T19:29:59.454Z,102534.27
2019-03-19T19:32:28.410Z,102530.91
2019-03-19T19:34:57.737Z,102531.41
2019-03-19T19:37:26.701Z,102524.69
2019-03-19T19:39:55.584Z,102529.88
2019-03-19T19:42:24.727Z,102526.58
2019-03-19T19:44:53.656Z,102531.98
2019-03-19T19:47:22.959Z,102537.58
2019-03-19T19:49:51.957Z,102529.62
2019-03-19T19:52:20.955Z,102531.59
2019-03-19T19:54:51.180Z,102527.00
2019-03-19T19:57:20.125Z,102535.72
2019-03-19T19:59:49.179Z,102548.81
2019-03-19T20:02:21.239Z,102554.28
2019-03-19T20:04:50.189Z,102553.66
2019-03-19T20:07:19.183Z,102561.20
2019-03-19T20:09:50.484Z,102562.34
2019-03-19T20:12:19.365Z,102561.92
2019-03-19T20:14:48.390Z,102565.30
2019-03-19T20:17:17.444Z,102571.34
2019-03-19T20:19:46.384Z,102579.16
2019-03-19T20:22:15.416Z,102586.04
2019-03-19T20:24:47.276Z,102580.98
2019-03-19T20:27:16.375Z,102584.22
2019-03-19T20:29:45.293Z,102586.04
2019-03-19T20:32:14.333Z,102592.64
2019-03-19T20:34:43.392Z,102590.48
2019-03-19T20:37:12.335Z,102590.53
2019-03-19T20:39:43.128Z,102585.42
2019-03-19T20:42:18.732Z,102578.19
2019-03-19T20:44:51.010Z,102578.43
2019-03-19T20:47:33.416Z,102565.67
2019-03-19T20:50:02.510Z,102565.53
2019-03-19T20:52:37.832Z,102570.25
2019-03-19T20:55:07.277Z,102568.80
2019-03-19T20:57:36.447Z,102575.43
2019-03-19T21:00:06.555Z,102573.23
2019-03-19T21:02:38.144Z,102566.52
2019-03-19T21:05:07.088Z,102568.47
2019-03-19T21:07:36.043Z,102582.40
2019-03-19T21:10:06.217Z,102581.59
2019-03-19T21:12:35.203Z,102562.53
2019-03-19T21:15:25.610Z,102564.96
2019-03-19T21:18:02.550Z,102569.30
2019-03-19T21:20:31.899Z,102571.17
2019-03-19T21:23:03.562Z,102568.06
2019-03-19T21:25:45.092Z,102573.09
2019-03-19T21:28:33.809Z,102571.50
2019-03-19T21:31:03.810Z,102570.81
2019-03-19T21:33:32.821Z,102570.98
2019-03-19T21:36:01.763Z,102579.31
2019-03-19T21:38:58.158Z,102583.89
2019-03-19T21:41:44.110Z,102585.45
2019-03-19T21:46:23.347Z,102590.75
2019-03-19T21:48:04.688Z,102591.56
2019-03-19T21:50:33.719Z,102594.88
2019-03-19T21:53:05.278Z,102594.34
2019-03-19T21:55:36.209Z,102594.66
2019-03-19T21:58:07.811Z,102602.02
2019-03-19T22:00:39.075Z,102601.73
2019-03-19T22:03:08.626Z,102601.59
2019-03-19T22:05:43.601Z,102606.50
2019-03-19T22:08:12.543Z,102606.27
2019-03-19T22:10:41.650Z,102608.53
2019-03-19T22:13:10.784Z,102614.55
2019-03-19T22:15:39.840Z,102611.26
2019-03-19T22:18:08.862Z,102608.22
2019-03-19T22:20:37.984Z,102600.42
2019-03-19T22:23:06.965Z,102604.00
2019-03-19T22:25:35.790Z,102604.33
2019-03-19T22:28:04.878Z,102606.88
2019-03-19T22:30:33.823Z,102603.16
2019-03-19T22:33:05.201Z,102596.44
2019-03-19T22:35:32.299Z,102591.07
2019-03-19T22:38:01.673Z,102593.95
2019-03-19T22:40:31.299Z,102593.44
2019-03-19T22:43:00.466Z,102596.70
2019-03-19T22:45:29.714Z,102582.80
2019-03-19T22:47:58.909Z,102589.07
2019-03-19T22:50:28.066Z,102585.17
2019-03-19T22:52:57.088Z,102587.54
2019-03-19T22:55:29.315Z,102584.22
2019-03-19T22:57:55.011Z,102591.78
2019-03-19T23:00:34.499Z,102593.45
2019-03-19T23:03:03.609Z,102591.50
2019-03-19T23:05:32.631Z,102594.27
2019-03-19T23:08:01.705Z,102598.91
2019-03-19T23:10:30.650Z,102601.19
2019-03-19T23:12:59.622Z,102600.32
2019-03-19T23:15:28.600Z,102600.61
2019-03-19T23:17:57.567Z,102601.07
2019-03-19T23:20:26.483Z,102605.28
2019-03-19T23:22:55.440Z,102604.88
2019-03-19T23:25:24.383Z,102605.20
2019-03-19T23:27:53.434Z,102611.38
2019-03-19T23:30:22.420Z,102613.45
2019-03-19T23:32:51.387Z,102616.55
2019-03-19T23:35:20.308Z,102615.99
2019-03-19T23:37:49.315Z,102614.47
2019-03-19T23:40:18.312Z,102614.36
2019-03-19T23:42:47.272Z,102622.48
2019-03-19T23:45:16.321Z,102625.45
2019-03-19T23:47:45.188Z,102640.89
2019-03-19T23:50:14.208Z,102638.26
2019-03-19T23:52:43.186Z,102641.35
2019-03-19T23:55:12.228Z,102636.02
2019-03-19T23:57:41.195Z,102639.69
